sensor_id;sensor_type;location;lat;lon;timestamp;pressure;altitude;pressure_sealevel;temperature;humidity
42691;BME280;28306;55.744;37.578;2023-02-20T00:00:04;97695.31;;;26.48;16.11
42691;BME280;28306;55.744;37.578;2023-02-20T00:02:31;97702.22;;;26.45;16.25
42691;BME280;28306;55.744;37.578;2023-02-20T00:04:57;97695.97;;;26.44;16.03
42691;BME280;28306;55.744;37.578;2023-02-20T00:07:22;97704.94;;;26.45;15.97
42691;BME280;28306;55.744;37.578;2023-02-20T00:09:48;97699.47;;;26.45;16.15
42691;BME280;28306;55.744;37.578;2023-02-20T00:12:13;97698.69;;;26.44;16.28
42691;BME280;28306;55.744;37.578;2023-02-20T00:14:38;97697.56;;;26.46;16.15
42691;BME280;28306;55.744;37.578;2023-02-20T00:17:04;97695.66;;;26.46;15.86
42691;BME280;28306;55.744;37.578;2023-02-20T00:19:29;97689.03;;;26.47;15.83
42691;BME280;28306;55.744;37.578;2023-02-20T00:21:55;97703.50;;;26.48;16.02
42691;BME280;28306;55.744;37.578;2023-02-20T00:24:20;97696.13;;;26.48;15.89
42691;BME280;28306;55.744;37.578;2023-02-20T00:26:46;97694.50;;;26.47;16.06
42691;BME280;28306;55.744;37.578;2023-02-20T00:29:16;97693.72;;;26.47;15.95
42691;BME280;28306;55.744;37.578;2023-02-20T00:31:41;97697.56;;;26.46;15.92
42691;BME280;28306;55.744;37.578;2023-02-20T00:34:07;97700.28;;;26.46;15.94
42691;BME280;28306;55.744;37.578;2023-02-20T00:36:32;97688.25;;;26.47;15.79
42691;BME280;28306;55.744;37.578;2023-02-20T00:38:58;97693.72;;;26.47;16.06
42691;BME280;28306;55.744;37.578;2023-02-20T00:41:23;97695.66;;;26.46;15.83
42691;BME280;28306;55.744;37.578;2023-02-20T00:43:49;97693.72;;;26.47;15.80
42691;BME280;28306;55.744;37.578;2023-02-20T00:46:15;97688.25;;;26.47;15.70
42691;BME280;28306;55.744;37.578;2023-02-20T00:48:41;97691.31;;;26.45;16.01
42691;BME280;28306;55.744;37.578;2023-02-20T00:51:25;97692.41;;;26.44;15.95
42691;BME280;28306;55.744;37.578;2023-02-20T00:53:51;97691.31;;;26.45;15.88
42691;BME280;28306;55.744;37.578;2023-02-20T00:56:17;97693.25;;;26.44;16.01
42691;BME280;28306;55.744;37.578;2023-02-20T00:58:42;97693.25;;;26.44;15.74
42691;BME280;28306;55.744;37.578;2023-02-20T01:01:08;97691.31;;;26.45;15.82
42691;BME280;28306;55.744;37.578;2023-02-20T01:03:34;97689.38;;;26.46;15.93
42691;BME280;28306;55.744;37.578;2023-02-20T01:05:59;97687.78;;;26.44;15.76
42691;BME280;28306;55.744;37.578;2023-02-20T01:08:25;97683.44;;;26.43;15.81
42691;BME280;28306;55.744;37.578;2023-02-20T01:10:50;97683.44;;;26.43;15.75
42691;BME280;28306;55.744;37.578;2023-02-20T01:13:16;97688.56;;;26.45;15.68
42691;BME280;28306;55.744;37.578;2023-02-20T01:15:42;97689.69;;;26.44;15.83
42691;BME280;28306;55.744;37.578;2023-02-20T01:18:08;97690.50;;;26.44;15.75
42691;BME280;28306;55.744;37.578;2023-02-20T01:20:33;97689.69;;;26.44;15.64
42691;BME280;28306;55.744;37.578;2023-02-20T01:22:59;97687.28;;;26.42;15.75
42691;BME280;28306;55.744;37.578;2023-02-20T01:25:24;97690.84;;;26.43;15.75
42691;BME280;28306;55.744;37.578;2023-02-20T01:27:50;97692.75;;;26.42;15.74
42691;BME280;28306;55.744;37.578;2023-02-20T01:30:15;97697.09;;;26.43;15.81
42691;BME280;28306;55.744;37.578;2023-02-20T01:32:41;97697.41;;;26.42;15.59
42691;BME280;28306;55.744;37.578;2023-02-20T01:35:07;97702.84;;;26.42;15.62
42691;BME280;28306;55.744;37.578;2023-02-20T01:37:32;97696.59;;;26.41;15.70
42691;BME280;28306;55.744;37.578;2023-02-20T01:39:58;97703.97;;;26.41;15.90
42691;BME280;28306;55.744;37.578;2023-02-20T01:42:24;97698.84;;;26.39;15.70
42691;BME280;28306;55.744;37.578;2023-02-20T01:44:53;97697.72;;;26.40;15.91
42691;BME280;28306;55.744;37.578;2023-02-20T01:47:19;97699.66;;;26.40;15.83
42691;BME280;28306;55.744;37.578;2023-02-20T01:49:59;97696.94;;;26.40;15.70
42691;BME280;28306;55.744;37.578;2023-02-20T01:52:28;97696.59;;;26.41;15.65
42691;BME280;28306;55.744;37.578;2023-02-20T01:54:56;97701.25;;;26.41;15.62
42691;BME280;28306;55.744;37.578;2023-02-20T01:57:23;97699.66;;;26.40;15.88
42691;BME280;28306;55.744;37.578;2023-02-20T01:59:52;97703.19;;;26.40;15.62
42691;BME280;28306;55.744;37.578;2023-02-20T02:02:20;97706.69;;;26.41;15.82
42691;BME280;28306;55.744;37.578;2023-02-20T02:04:46;97705.91;;;26.40;15.69
42691;BME280;28306;55.744;37.578;2023-02-20T02:07:13;97706.69;;;26.41;15.74
42691;BME280;28306;55.744;37.578;2023-02-20T02:09:45;97714.56;;;26.42;15.52
42691;BME280;28306;55.744;37.578;2023-02-20T02:12:12;97716.16;;;26.43;15.62
42691;BME280;28306;55.744;37.578;2023-02-20T02:14:38;97712.66;;;26.43;15.68
42691;BME280;28306;55.744;37.578;2023-02-20T02:25:18;97715.84;;;26.45;15.62
42691;BME280;28306;55.744;37.578;2023-02-20T02:35:20;97721.94;;;26.42;15.65
42691;BME280;28306;55.744;37.578;2023-02-20T02:45:47;97731.75;;;26.43;15.60
42691;BME280;28306;55.744;37.578;2023-02-20T02:48:36;97738.78;;;26.44;15.54
42691;BME280;28306;55.744;37.578;2023-02-20T02:51:08;97733.31;;;26.44;15.49
42691;BME280;28306;55.744;37.578;2023-02-20T02:53:35;97732.53;;;26.43;15.69
42691;BME280;28306;55.744;37.578;2023-02-20T02:56:01;97731.75;;;26.43;15.64
42691;BME280;28306;55.744;37.578;2023-02-20T02:58:48;97729.81;;;26.43;15.87
42691;BME280;28306;55.744;37.578;2023-02-20T03:01:15;97734.13;;;26.44;15.67
42691;BME280;28306;55.744;37.578;2023-02-20T03:03:42;97727.88;;;26.44;15.68
42691;BME280;28306;55.744;37.578;2023-02-20T03:06:21;97732.53;;;26.43;15.51
42691;BME280;28306;55.744;37.578;2023-02-20T03:08:51;97738.44;;;26.46;15.84
42691;BME280;28306;55.744;37.578;2023-02-20T03:11:22;97739.59;;;26.44;15.73
42691;BME280;28306;55.744;37.578;2023-02-20T03:16:56;97735.72;;;26.46;15.54
42691;BME280;28306;55.744;37.578;2023-02-20T03:19:25;97736.03;;;26.44;15.61
42691;BME280;28306;55.744;37.578;2023-02-20T03:21:52;97735.25;;;26.43;15.62
42691;BME280;28306;55.744;37.578;2023-02-20T03:24:19;97732.53;;;26.43;15.69
42691;BME280;28306;55.744;37.578;2023-02-20T03:26:45;97728.69;;;26.44;15.61
42691;BME280;28306;55.744;37.578;2023-02-20T03:29:12;97733.31;;;26.44;15.53
42691;BME280;28306;55.744;37.578;2023-02-20T03:31:47;97744.53;;;26.42;15.51
42691;BME280;28306;55.744;37.578;2023-02-20T03:34:21;97736.69;;;26.41;15.50
42691;BME280;28306;55.744;37.578;2023-02-20T03:37:14;97742.97;;;26.41;15.62
42691;BME280;28306;55.744;37.578;2023-02-20T03:40:01;97741.81;;;26.42;15.74
42691;BME280;28306;55.744;37.578;2023-02-20T03:42:50;97742.16;;;26.41;15.55
42691;BME280;28306;55.744;37.578;2023-02-20T03:45:37;97744.53;;;26.42;15.49
42691;BME280;28306;55.744;37.578;2023-02-20T03:48:06;97746.47;;;26.42;15.56
42691;BME280;28306;55.744;37.578;2023-02-20T03:50:33;97742.66;;;26.43;15.56
42691;BME280;28306;55.744;37.578;2023-02-20T03:53:20;97741.50;;;26.44;15.79
42691;BME280;28306;55.744;37.578;2023-02-20T03:55:46;97741.50;;;26.44;15.82
42691;BME280;28306;55.744;37.578;2023-02-20T03:58:14;97746.16;;;26.43;15.57
42691;BME280;28306;55.744;37.578;2023-02-20T04:00:43;97748.09;;;26.43;15.49
42691;BME280;28306;55.744;37.578;2023-02-20T04:03:12;97743.44;;;26.43;15.58
42691;BME280;28306;55.744;37.578;2023-02-20T04:05:43;97744.53;;;26.42;15.51
42691;BME280;28306;55.744;37.578;2023-02-20T04:08:10;97743.75;;;26.42;15.68
42691;BME280;28306;55.744;37.578;2023-02-20T04:10:39;97751.16;;;26.41;15.65
42691;BME280;28306;55.744;37.578;2023-02-20T04:13:06;97753.06;;;26.41;15.65
42691;BME280;28306;55.744;37.578;2023-02-20T04:15:32;97748.25;;;26.38;15.67
42691;BME280;28306;55.744;37.578;2023-02-20T04:18:08;97750.66;;;26.39;15.59
42691;BME280;28306;55.744;37.578;2023-02-20T04:20:35;97758.81;;;26.39;15.63
42691;BME280;28306;55.744;37.578;2023-02-20T04:23:24;97749.53;;;26.40;15.68
42691;BME280;28306;55.744;37.578;2023-02-20T04:26:01;97756.59;;;26.41;15.55
42691;BME280;28306;55.744;37.578;2023-02-20T04:28:31;97752.72;;;26.42;15.55
42691;BME280;28306;55.744;37.578;2023-02-20T04:31:00;97743.75;;;26.42;15.72
42691;BME280;28306;55.744;37.578;2023-02-20T04:33:27;97748.09;;;26.43;15.50
42691;BME280;28306;55.744;37.578;2023-02-20T04:35:58;97742.16;;;26.41;15.67
42691;BME280;28306;55.744;37.578;2023-02-20T04:38:24;97745.19;;;26.39;15.42
42691;BME280;28306;55.744;37.578;2023-02-20T04:40:50;97741.66;;;26.39;15.49
42691;BME280;28306;55.744;37.578;2023-02-20T04:43:17;97742.47;;;26.39;15.75
42691;BME280;28306;55.744;37.578;2023-02-20T04:45:43;97755.78;;;26.41;15.46
42691;BME280;28306;55.744;37.578;2023-02-20T04:48:10;97756.59;;;26.41;15.49
42691;BME280;28306;55.744;37.578;2023-02-20T04:50:36;97760.44;;;26.40;15.46
42691;BME280;28306;55.744;37.578;2023-02-20T04:53:03;97765.88;;;26.40;15.46
42691;BME280;28306;55.744;37.578;2023-02-20T04:55:30;97762.84;;;26.42;15.67
42691;BME280;28306;55.744;37.578;2023-02-20T04:57:59;97758.19;;;26.42;15.82
42691;BME280;28306;55.744;37.578;2023-02-20T05:00:29;97766.38;;;26.42;15.48
42691;BME280;28306;55.744;37.578;2023-02-20T05:02:56;97773.44;;;26.43;15.53
42691;BME280;28306;55.744;37.578;2023-02-20T05:05:23;97767.19;;;26.43;15.79
42691;BME280;28306;55.744;37.578;2023-02-20T05:07:53;97774.53;;;26.42;15.56
42691;BME280;28306;55.744;37.578;2023-02-20T05:10:20;97765.56;;;26.42;15.59
42691;BME280;28306;55.744;37.578;2023-02-20T05:12:45;97776.47;;;26.42;15.68
42691;BME280;28306;55.744;37.578;2023-02-20T05:15:11;97775.69;;;26.41;15.50
42691;BME280;28306;55.744;37.578;2023-02-20T05:17:36;97769.41;;;26.41;15.78
42691;BME280;28306;55.744;37.578;2023-02-20T05:20:02;97771.03;;;26.42;15.52
42691;BME280;28306;55.744;37.578;2023-02-20T05:22:28;97777.28;;;26.42;15.60
42691;BME280;28306;55.744;37.578;2023-02-20T05:24:53;97773.75;;;26.42;15.55
42691;BME280;28306;55.744;37.578;2023-02-20T05:27:20;97775.38;;;26.43;15.81
42691;BME280;28306;55.744;37.578;2023-02-20T05:29:46;97767.97;;;26.43;15.56
42691;BME280;28306;55.744;37.578;2023-02-20T05:32:12;97770.69;;;26.43;15.53
42691;BME280;28306;55.744;37.578;2023-02-20T05:34:38;97766.03;;;26.44;15.44
42691;BME280;28306;55.744;37.578;2023-02-20T05:37:03;97781.59;;;26.43;15.53
42691;BME280;28306;55.744;37.578;2023-02-20T05:39:29;97783.22;;;26.44;15.70
42691;BME280;28306;55.744;37.578;2023-02-20T05:41:54;97772.00;;;26.46;15.38
42691;BME280;28306;55.744;37.578;2023-02-20T05:44:20;97778.25;;;26.47;15.47
42691;BME280;28306;55.744;37.578;2023-02-20T05:46:45;97779.03;;;26.47;15.21
42691;BME280;28306;55.744;37.578;2023-02-20T05:49:11;97779.84;;;26.48;15.15
42691;BME280;28306;55.744;37.578;2023-02-20T05:51:36;97780.97;;;26.47;15.34
42691;BME280;28306;55.744;37.578;2023-02-20T05:54:02;97781.75;;;26.47;15.34
42691;BME280;28306;55.744;37.578;2023-02-20T05:56:27;97783.69;;;26.47;15.44
42691;BME280;28306;55.744;37.578;2023-02-20T05:58:54;97788.03;;;26.48;15.24
42691;BME280;28306;55.744;37.578;2023-02-20T06:01:27;97787.22;;;26.47;15.36
42691;BME280;28306;55.744;37.578;2023-02-20T06:03:52;97799.41;;;26.50;15.37
42691;BME280;28306;55.744;37.578;2023-02-20T06:06:18;97789.63;;;26.49;15.54
42691;BME280;28306;55.744;37.578;2023-02-20T06:08:44;97792.34;;;26.49;15.55
42691;BME280;28306;55.744;37.578;2023-02-20T06:11:11;97793.97;;;26.50;15.67
42691;BME280;28306;55.744;37.578;2023-02-20T06:13:40;97795.91;;;26.49;15.46
42691;BME280;28306;55.744;37.578;2023-02-20T06:16:06;97792.03;;;26.50;15.54
42691;BME280;28306;55.744;37.578;2023-02-20T06:18:32;97803.75;;;26.51;15.42
42691;BME280;28306;55.744;37.578;2023-02-20T06:20:57;97808.38;;;26.50;15.48
42691;BME280;28306;55.744;37.578;2023-02-20T06:23:23;97809.22;;;26.51;15.39
42691;BME280;28306;55.744;37.578;2023-02-20T06:25:48;97805.84;;;26.54;15.40
42691;BME280;28306;55.744;37.578;2023-02-20T06:28:14;97817.53;;;26.54;15.41
42691;BME280;28306;55.744;37.578;2023-02-20T06:30:39;97816.44;;;26.55;15.71
42691;BME280;28306;55.744;37.578;2023-02-20T06:33:05;97814.50;;;26.56;15.49
42691;BME280;28306;55.744;37.578;2023-02-20T06:35:31;97813.38;;;26.57;15.27
42691;BME280;28306;55.744;37.578;2023-02-20T06:37:56;97814.97;;;26.58;15.53
42691;BME280;28306;55.744;37.578;2023-02-20T06:40:22;97809.50;;;26.58;15.38
42691;BME280;28306;55.744;37.578;2023-02-20T06:42:47;97816.59;;;26.59;15.54
42691;BME280;28306;55.744;37.578;2023-02-20T06:45:13;97813.84;;;26.59;15.46
42691;BME280;28306;55.744;37.578;2023-02-20T06:47:40;97813.84;;;26.59;15.38
42691;BME280;28306;55.744;37.578;2023-02-20T06:50:06;97815.47;;;26.60;15.39
42691;BME280;28306;55.744;37.578;2023-02-20T06:52:31;97819.31;;;26.59;15.29
42691;BME280;28306;55.744;37.578;2023-02-20T06:54:57;97820.94;;;26.60;15.32
42691;BME280;28306;55.744;37.578;2023-02-20T06:57:23;97822.50;;;26.61;15.63
42691;BME280;28306;55.744;37.578;2023-02-20T06:59:48;97826.84;;;26.62;15.42
42691;BME280;28306;55.744;37.578;2023-02-20T07:02:14;97830.06;;;26.64;15.28
42691;BME280;28306;55.744;37.578;2023-02-20T07:04:40;97827.84;;;26.66;15.25
42691;BME280;28306;55.744;37.578;2023-02-20T07:07:05;97830.59;;;26.66;15.58
42691;BME280;28306;55.744;37.578;2023-02-20T07:09:31;97829.59;;;26.71;15.46
42691;BME280;28306;55.744;37.578;2023-02-20T07:11:56;97820.28;;;26.72;15.35
42691;BME280;28306;55.744;37.578;2023-02-20T07:14:22;97817.25;;;26.73;15.58
42691;BME280;28306;55.744;37.578;2023-02-20T07:16:48;97823.16;;;26.75;15.31
42691;BME280;28306;55.744;37.578;2023-02-20T07:19:13;97827.50;;;26.76;15.44
42691;BME280;28306;55.744;37.578;2023-02-20T07:21:39;97822.84;;;26.77;15.25
42691;BME280;28306;55.744;37.578;2023-02-20T07:24:04;97826.72;;;26.76;15.32
42691;BME280;28306;55.744;37.578;2023-02-20T07:26:30;97832.97;;;26.76;15.29
42691;BME280;28306;55.744;37.578;2023-02-20T07:28:56;97834.91;;;26.76;15.43
42691;BME280;28306;55.744;37.578;2023-02-20T07:31:22;97838.44;;;26.76;15.19
42691;BME280;28306;55.744;37.578;2023-02-20T07:33:48;97837.78;;;26.79;15.37
42691;BME280;28306;55.744;37.578;2023-02-20T07:36:13;97842.91;;;26.81;15.42
42691;BME280;28306;55.744;37.578;2023-02-20T07:38:39;97837.94;;;26.83;15.31
42691;BME280;28306;55.744;37.578;2023-02-20T07:41:05;97834.09;;;26.84;15.50
42691;BME280;28306;55.744;37.578;2023-02-20T07:43:31;97832.16;;;26.85;15.48
42691;BME280;28306;55.744;37.578;2023-02-20T07:45:56;97835.38;;;26.87;15.28
42691;BME280;28306;55.744;37.578;2023-02-20T07:48:22;97840.03;;;26.86;15.15
42691;BME280;28306;55.744;37.578;2023-02-20T07:50:47;97838.75;;;26.84;15.41
42691;BME280;28306;55.744;37.578;2023-02-20T07:53:13;97845.78;;;26.85;15.25
42691;BME280;28306;55.744;37.578;2023-02-20T07:55:39;97849.66;;;26.84;15.21
42691;BME280;28306;55.744;37.578;2023-02-20T07:58:04;97847.25;;;26.82;15.40
42691;BME280;28306;55.744;37.578;2023-02-20T08:00:30;97853.03;;;26.81;15.36
42691;BME280;28306;55.744;37.578;2023-02-20T08:02:55;97854.94;;;26.80;15.36
42691;BME280;28306;55.744;37.578;2023-02-20T08:05:21;97850.31;;;26.81;15.51
42691;BME280;28306;55.744;37.578;2023-02-20T08:07:47;97849.81;;;26.78;15.31
42691;BME280;28306;55.744;37.578;2023-02-20T08:10:14;97850.63;;;26.79;15.56
42691;BME280;28306;55.744;37.578;2023-02-20T08:12:39;97858.00;;;26.78;15.37
42691;BME280;28306;55.744;37.578;2023-02-20T08:15:05;97858.00;;;26.78;15.22
42691;BME280;28306;55.744;37.578;2023-02-20T08:17:30;97858.00;;;26.78;15.51
42691;BME280;28306;55.744;37.578;2023-02-20T08:19:56;97861.03;;;26.77;15.60
42691;BME280;28306;55.744;37.578;2023-02-20T08:22:21;97863.13;;;26.80;15.32
42691;BME280;28306;55.744;37.578;2023-02-20T08:24:47;97859.63;;;26.79;15.40
42691;BME280;28306;55.744;37.578;2023-02-20T08:27:12;97858.81;;;26.79;15.50
42691;BME280;28306;55.744;37.578;2023-02-20T08:29:38;97864.28;;;26.79;15.28
42691;BME280;28306;55.744;37.578;2023-02-20T08:32:03;97860.41;;;26.80;15.55
42691;BME280;28306;55.744;37.578;2023-02-20T08:34:29;97855.44;;;26.82;15.36
42691;BME280;28306;55.744;37.578;2023-02-20T08:36:54;97863.00;;;26.85;15.34
42691;BME280;28306;55.744;37.578;2023-02-20T08:39:20;97860.72;;;26.87;15.15
42691;BME280;28306;55.744;37.578;2023-02-20T08:41:45;97872.13;;;26.89;15.50
42691;BME280;28306;55.744;37.578;2023-02-20T08:44:11;97877.25;;;26.91;15.39
42691;BME280;28306;55.744;37.578;2023-02-20T08:46:37;97876.63;;;26.94;15.40
42691;BME280;28306;55.744;37.578;2023-02-20T08:49:02;97885.31;;;26.96;15.11
42691;BME280;28306;55.744;37.578;2023-02-20T08:51:28;97880.97;;;26.95;15.21
42691;BME280;28306;55.744;37.578;2023-02-20T08:53:53;97875.97;;;26.97;15.27
42691;BME280;28306;55.744;37.578;2023-02-20T08:56:20;97879.19;;;26.99;15.25
42691;BME280;28306;55.744;37.578;2023-02-20T08:58:45;97879.34;;;27.03;15.34
42691;BME280;28306;55.744;37.578;2023-02-20T09:01:11;97870.53;;;27.06;15.33
42691;BME280;28306;55.744;37.578;2023-02-20T09:03:36;97868.56;;;27.06;15.13
42691;BME280;28306;55.744;37.578;2023-02-20T09:06:06;97870.66;;;27.09;15.36
42691;BME280;28306;55.744;37.578;2023-02-20T09:08:31;97861.34;;;27.10;15.54
42691;BME280;28306;55.744;37.578;2023-02-20T09:10:57;97864.22;;;27.14;15.25
42691;BME280;28306;55.744;37.578;2023-02-20T09:13:22;97866.31;;;27.17;15.43
42691;BME280;28306;55.744;37.578;2023-02-20T09:15:48;97869.69;;;27.23;15.53
42691;BME280;28306;55.744;37.578;2023-02-20T09:18:13;97867.75;;;27.23;15.47
42691;BME280;28306;55.744;37.578;2023-02-20T09:20:39;97880.75;;;27.26;15.20
42691;BME280;28306;55.744;37.578;2023-02-20T09:23:05;97874.50;;;27.26;15.22
42691;BME280;28306;55.744;37.578;2023-02-20T09:25:31;97874.97;;;27.28;15.42
42691;BME280;28306;55.744;37.578;2023-02-20T09:27:57;97875.78;;;27.28;15.20
42691;BME280;28306;55.744;37.578;2023-02-20T09:30:22;97883.97;;;27.28;15.26
42691;BME280;28306;55.744;37.578;2023-02-20T09:32:48;97885.09;;;27.27;15.57
42691;BME280;28306;55.744;37.578;2023-02-20T09:35:25;97882.69;;;27.26;15.53
42691;BME280;28306;55.744;37.578;2023-02-20T09:37:51;97882.53;;;27.22;15.28
42691;BME280;28306;55.744;37.578;2023-02-20T09:40:17;97884.47;;;27.22;15.55
42691;BME280;28306;55.744;37.578;2023-02-20T09:45:14;97888.63;;;27.19;15.38
42691;BME280;28306;55.744;37.578;2023-02-20T09:50:12;97875.16;;;27.14;15.55
42691;BME280;28306;55.744;37.578;2023-02-20T09:52:39;97871.31;;;27.15;15.60
42691;BME280;28306;55.744;37.578;2023-02-20T09:55:11;97873.22;;;27.14;15.79
42691;BME280;28306;55.744;37.578;2023-02-20T09:57:37;97869.38;;;27.15;15.77
42691;BME280;28306;55.744;37.578;2023-02-20T10:02:33;97869.84;;;27.18;15.76
42691;BME280;28306;55.744;37.578;2023-02-20T10:05:05;97857.66;;;27.06;15.77
42691;BME280;28306;55.744;37.578;2023-02-20T10:07:38;97872.09;;;27.15;15.79
42691;BME280;28306;55.744;37.578;2023-02-20T10:10:16;97868.25;;;27.17;15.62
42691;BME280;28306;55.744;37.578;2023-02-20T10:12:49;97866.63;;;27.15;15.74
42691;BME280;28306;55.744;37.578;2023-02-20T10:15:22;97867.75;;;27.14;15.82
42691;BME280;28306;55.744;37.578;2023-02-20T10:18:05;97870.16;;;27.16;15.94
42691;BME280;28306;55.744;37.578;2023-02-20T10:23:37;97863.91;;;27.15;15.70
42691;BME280;28306;55.744;37.578;2023-02-20T10:26:11;97863.91;;;27.15;15.92
42691;BME280;28306;55.744;37.578;2023-02-20T10:28:38;97870.16;;;27.16;15.98
42691;BME280;28306;55.744;37.578;2023-02-20T10:33:32;97861.97;;;27.16;15.69
42691;BME280;28306;55.744;37.578;2023-02-20T10:38:28;97872.09;;;27.15;15.85
42691;BME280;28306;55.744;37.578;2023-02-20T10:46:03;97860.38;;;27.15;15.99
42691;BME280;28306;55.744;37.578;2023-02-20T10:48:30;97854.09;;;27.14;15.86
42691;BME280;28306;55.744;37.578;2023-02-20T10:51:04;97866.63;;;27.15;15.82
42691;BME280;28306;55.744;37.578;2023-02-20T10:53:33;97872.09;;;27.15;15.81
42691;BME280;28306;55.744;37.578;2023-02-20T10:58:27;97863.91;;;27.15;15.94
42691;BME280;28306;55.744;37.578;2023-02-20T11:01:02;97872.09;;;27.15;15.72
42691;BME280;28306;55.744;37.578;2023-02-20T11:05:59;97869.38;;;27.15;15.54
42691;BME280;28306;55.744;37.578;2023-02-20T11:08:26;97870.16;;;27.16;15.49
42691;BME280;28306;55.744;37.578;2023-02-20T11:10:52;97859.25;;;27.16;15.63
42691;BME280;28306;55.744;37.578;2023-02-20T11:13:21;97866.97;;;27.14;15.62
42691;BME280;28306;55.744;37.578;2023-02-20T11:15:48;97863.44;;;27.13;15.57
42691;BME280;28306;55.744;37.578;2023-02-20T11:18:25;97860.22;;;27.11;15.86
42691;BME280;28306;55.744;37.578;2023-02-20T11:20:53;97862.47;;;27.09;15.72
42691;BME280;28306;55.744;37.578;2023-02-20T11:23:36;97867.16;;;27.09;15.82
42691;BME280;28306;55.744;37.578;2023-02-20T11:28:56;97874.03;;;27.06;15.81
42691;BME280;28306;55.744;37.578;2023-02-20T11:31:22;97875.16;;;27.05;15.98
42691;BME280;28306;55.744;37.578;2023-02-20T11:33:48;97868.91;;;27.05;15.70
42691;BME280;28306;55.744;37.578;2023-02-20T11:36:16;97879.03;;;27.04;15.89
42691;BME280;28306;55.744;37.578;2023-02-20T11:38:42;97873.56;;;27.04;15.79
42691;BME280;28306;55.744;37.578;2023-02-20T11:41:50;97891.53;;;27.05;15.67
42691;BME280;28306;55.744;37.578;2023-02-20T11:44:09;97884.97;;;27.06;15.52
42691;BME280;28306;55.744;37.578;2023-02-20T11:46:40;97890.41;;;27.06;15.52
42691;BME280;28306;55.744;37.578;2023-02-20T11:49:07;97887.69;;;27.06;15.59
42691;BME280;28306;55.744;37.578;2023-02-20T12:01:51;97894.44;;;27.00;15.88
42691;BME280;28306;55.744;37.578;2023-02-20T12:04:19;97893.31;;;27.01;15.69
42691;BME280;28306;55.744;37.578;2023-02-20T12:06:44;97894.44;;;27.00;15.60
42691;BME280;28306;55.744;37.578;2023-02-20T12:09:14;97899.91;;;27.00;15.75
42691;BME280;28306;55.744;37.578;2023-02-20T12:11:41;97897.16;;;27.00;15.53
42691;BME280;28306;55.744;37.578;2023-02-20T12:14:10;97889.44;;;27.02;15.56
42691;BME280;28306;55.744;37.578;2023-02-20T12:26:55;97889.94;;;27.04;15.38
42691;BME280;28306;55.744;37.578;2023-02-20T12:29:44;97893.47;;;27.05;15.50
42691;BME280;28306;55.744;37.578;2023-02-20T12:34:57;97882.06;;;27.03;15.40
42691;BME280;28306;55.744;37.578;2023-02-20T12:42:38;97890.28;;;27.03;15.52
42691;BME280;28306;55.744;37.578;2023-02-20T12:47:35;97886.25;;;27.00;15.62
42691;BME280;28306;55.744;37.578;2023-02-20T13:05:34;97892.34;;;26.97;15.52
42691;BME280;28306;55.744;37.578;2023-02-20T13:08:02;97889.94;;;26.95;15.48
42691;BME280;28306;55.744;37.578;2023-02-20T13:10:37;97891.09;;;26.94;15.47
42691;BME280;28306;55.744;37.578;2023-02-20T13:13:07;97886.75;;;26.93;15.52
42691;BME280;28306;55.744;37.578;2023-02-20T13:18:05;97890.59;;;26.92;15.74
42691;BME280;28306;55.744;37.578;2023-02-20T13:20:42;97887.06;;;26.92;15.61
42691;BME280;28306;55.744;37.578;2023-02-20T13:25:44;97885.44;;;26.91;15.52
42691;BME280;28306;55.744;37.578;2023-02-20T13:30:45;97885.44;;;26.91;15.64
42691;BME280;28306;55.744;37.578;2023-02-20T13:33:30;97887.38;;;26.90;15.42
42691;BME280;28306;55.744;37.578;2023-02-20T13:35:55;97890.91;;;26.91;15.62
42691;BME280;28306;55.744;37.578;2023-02-20T13:38:22;97888.16;;;26.91;15.54
42691;BME280;28306;55.744;37.578;2023-02-20T13:45:46;97888.50;;;26.89;15.52
42691;BME280;28306;55.744;37.578;2023-02-20T13:50:46;97894.28;;;26.88;15.45
42691;BME280;28306;55.744;37.578;2023-02-20T13:53:11;97894.28;;;26.88;15.46
42691;BME280;28306;55.744;37.578;2023-02-20T13:55:37;97885.28;;;26.87;15.56
42691;BME280;28306;55.744;37.578;2023-02-20T13:58:04;97884.16;;;26.79;15.53
42691;BME280;28306;55.744;37.578;2023-02-20T14:00:37;97902.97;;;26.90;15.51
42691;BME280;28306;55.744;37.578;2023-02-20T14:05:54;97897.50;;;26.90;15.72
42691;BME280;28306;55.744;37.578;2023-02-20T14:08:24;97900.56;;;26.88;15.61
42691;BME280;28306;55.744;37.578;2023-02-20T14:10:50;97900.56;;;26.88;15.49
42691;BME280;28306;55.744;37.578;2023-02-20T14:13:20;97901.66;;;26.87;15.45
42691;BME280;28306;55.744;37.578;2023-02-20T14:15:50;97893.81;;;26.86;15.73
42691;BME280;28306;55.744;37.578;2023-02-20T14:18:18;97900.38;;;26.85;15.81
42691;BME280;28306;55.744;37.578;2023-02-20T14:20:44;97902.31;;;26.84;15.44
42691;BME280;28306;55.744;37.578;2023-02-20T14:23:21;97892.50;;;26.83;15.50
42691;BME280;28306;55.744;37.578;2023-02-20T14:26:32;97900.22;;;26.81;15.89
42691;BME280;28306;55.744;37.578;2023-02-20T14:28:43;97908.72;;;26.79;15.74
42691;BME280;28306;55.744;37.578;2023-02-20T14:36:20;97910.34;;;26.81;15.57
42691;BME280;28306;55.744;37.578;2023-02-20T14:41:20;97905.19;;;26.79;15.77
42691;BME280;28306;55.744;37.578;2023-02-20T14:43:53;97902.78;;;26.77;15.70
42691;BME280;28306;55.744;37.578;2023-02-20T14:46:20;97910.16;;;26.77;15.74
42691;BME280;28306;55.744;37.578;2023-02-20T14:48:47;97914.03;;;26.76;15.51
42691;BME280;28306;55.744;37.578;2023-02-20T14:51:23;97907.75;;;26.75;15.78
42691;BME280;28306;55.744;37.578;2023-02-20T14:53:56;97907.75;;;26.75;15.59
42691;BME280;28306;55.744;37.578;2023-02-20T14:56:22;97913.53;;;26.74;15.67
42691;BME280;28306;55.744;37.578;2023-02-20T14:58:47;97911.13;;;26.72;15.67
42691;BME280;28306;55.744;37.578;2023-02-20T15:03:41;97915.78;;;26.72;15.76